sensor_id;sensor_type;location;lat;lon;timestamp;pressure;altitude;pressure_sealevel;temperature;humidity
12676;BME280;63820;65.654;21.944;2023-05-09T00:00:36;101725.88;;;1.59;100.00
12676;BME280;63820;65.654;21.944;2023-05-09T00:03:20;101728.47;;;1.61;100.00
12676;BME280;63820;65.654;21.944;2023-05-09T00:06:05;101719.91;;;1.59;100.00
12676;BME280;63820;65.654;21.944;2023-05-09T00:08:50;101727.59;;;1.60;100.00
12676;BME280;63820;65.654;21.944;2023-05-09T00:11:34;101727.69;;;1.67;100.00
12676;BME280;63820;65.654;21.944;2023-05-09T00:14:18;101725.88;;;1.58;100.00
12676;BME280;63820;65.654;21.944;2023-05-09T00:17:02;101686.13;;;1.28;100.00
12676;BME280;63820;65.654;21.944;2023-05-09T00:19:46;101726.56;;;1.48;100.00
12676;BME280;63820;65.654;21.944;2023-05-09T00:22:30;101726.56;;;1.48;100.00
12676;BME280;63820;65.654;21.944;2023-05-09T00:25:14;101725.66;;;1.44;100.00
12676;BME280;63820;65.654;21.944;2023-05-09T00:27:58;101725.59;;;1.38;100.00
12676;BME280;63820;65.654;21.944;2023-05-09T00:30:42;101726.34;;;1.33;100.00
12676;BME280;63820;65.654;21.944;2023-05-09T00:33:26;101717.72;;;1.27;100.00
12676;BME280;63820;65.654;21.944;2023-05-09T00:36:09;101724.50;;;1.22;100.00
12676;BME280;63820;65.654;21.944;2023-05-09T00:38:54;101717.50;;;1.12;100.00
12676;BME280;63820;65.654;21.944;2023-05-09T00:49:27;101713.97;;;1.04;100.00
12676;BME280;63820;65.654;21.944;2023-05-09T00:52:12;101713.88;;;0.98;100.00
12676;BME280;63820;65.654;21.944;2023-05-09T00:54:56;101710.44;;;0.96;100.00
12676;BME280;63820;65.654;21.944;2023-05-09T00:57:40;101713.78;;;0.92;100.00
12676;BME280;63820;65.654;21.944;2023-05-09T01:00:24;101714.53;;;0.85;100.00
12676;BME280;63820;65.654;21.944;2023-05-09T01:03:08;101705.84;;;0.77;100.00
12676;BME280;63820;65.654;21.944;2023-05-09T01:06:08;101705.03;;;0.78;100.00
12676;BME280;63820;65.654;21.944;2023-05-09T01:09:02;101705.03;;;0.78;100.00
12676;BME280;63820;65.654;21.944;2023-05-09T01:12:06;101703.28;;;0.75;100.00
12676;BME280;63820;65.654;21.944;2023-05-09T01:15:07;101700.66;;;0.72;100.00
12676;BME280;63820;65.654;21.944;2023-05-09T01:21:07;101708.25;;;0.68;100.00
12676;BME280;63820;65.654;21.944;2023-05-09T01:29:56;101709.19;;;0.73;100.00
12676;BME280;63820;65.654;21.944;2023-05-09T01:32:42;101700.63;;;0.71;100.00
12676;BME280;63820;65.654;21.944;2023-05-09T01:35:28;101705.72;;;0.69;100.00
12676;BME280;63820;65.654;21.944;2023-05-09T01:38:17;101699.72;;;0.67;100.00
12676;BME280;63820;65.654;21.944;2023-05-09T01:41:02;101699.75;;;0.69;100.00
12676;BME280;63820;65.654;21.944;2023-05-09T01:43:49;101696.56;;;0.83;100.00
12676;BME280;63820;65.654;21.944;2023-05-09T01:46:36;101692.38;;;0.88;100.00
12676;BME280;63820;65.654;21.944;2023-05-09T01:49:20;101689.81;;;0.88;100.00
12676;BME280;63820;65.654;21.944;2023-05-09T01:52:14;101678.66;;;0.83;100.00
12676;BME280;63820;65.654;21.944;2023-05-09T01:55:00;101691.53;;;0.88;100.00
12676;BME280;63820;65.654;21.944;2023-05-09T01:57:45;101680.44;;;0.89;100.00
12676;BME280;63820;65.654;21.944;2023-05-09T02:00:33;101676.19;;;0.91;100.00
12676;BME280;63820;65.654;21.944;2023-05-09T02:03:17;101671.06;;;0.89;100.00
12676;BME280;63820;65.654;21.944;2023-05-09T02:06:03;101667.63;;;0.89;100.00
12676;BME280;63820;65.654;21.944;2023-05-09T02:08:48;101666.00;;;0.94;100.00
12676;BME280;63820;65.654;21.944;2023-05-09T02:11:33;101663.53;;;1.00;100.00
12676;BME280;63820;65.654;21.944;2023-05-09T02:14:16;101671.25;;;1.05;100.00
12676;BME280;63820;65.654;21.944;2023-05-09T02:17:00;101664.44;;;1.05;100.00
12676;BME280;63820;65.654;21.944;2023-05-09T02:19:48;101666.25;;;1.12;100.00
12676;BME280;63820;65.654;21.944;2023-05-09T02:22:33;101662.09;;;1.20;100.00
12676;BME280;63820;65.654;21.944;2023-05-09T02:25:17;101661.28;;;1.24;100.00
12676;BME280;63820;65.654;21.944;2023-05-09T02:28:01;101648.53;;;1.27;100.00
12676;BME280;63820;65.654;21.944;2023-05-09T02:30:46;101645.97;;;1.29;100.00
12676;BME280;63820;65.654;21.944;2023-05-09T02:33:34;101643.50;;;1.35;100.00
12676;BME280;63820;65.654;21.944;2023-05-09T02:36:19;101646.22;;;1.46;100.00
12676;BME280;63820;65.654;21.944;2023-05-09T02:39:05;101648.00;;;1.53;100.00
12676;BME280;63820;65.654;21.944;2023-05-09T02:41:50;101642.03;;;1.54;100.00
12676;BME280;63820;65.654;21.944;2023-05-09T02:44:34;101643.88;;;1.64;100.00
12676;BME280;63820;65.654;21.944;2023-05-09T02:47:19;101648.28;;;1.74;100.00
12676;BME280;63820;65.654;21.944;2023-05-09T02:50:04;101654.41;;;1.87;100.00
12676;BME280;63820;65.654;21.944;2023-05-09T02:52:49;101637.41;;;1.96;100.00
12676;BME280;63820;65.654;21.944;2023-05-09T02:55:33;101640.06;;;2.09;100.00
12676;BME280;63820;65.654;21.944;2023-05-09T02:58:17;101642.66;;;2.10;100.00
12676;BME280;63820;65.654;21.944;2023-05-09T03:01:01;101647.88;;;2.18;100.00
12676;BME280;63820;65.654;21.944;2023-05-09T03:03:45;101640.25;;;2.27;100.00
12676;BME280;63820;65.654;21.944;2023-05-09T03:06:29;101649.78;;;2.37;100.00
12676;BME280;63820;65.654;21.944;2023-05-09T03:09:13;101648.97;;;2.44;100.00
12676;BME280;63820;65.654;21.944;2023-05-09T03:11:58;101640.47;;;2.51;100.00
12676;BME280;63820;65.654;21.944;2023-05-09T03:14:42;101640.56;;;2.60;100.00
12676;BME280;63820;65.654;21.944;2023-05-09T03:17:27;101642.34;;;2.68;100.00
12676;BME280;63820;65.654;21.944;2023-05-09T03:20:11;101641.53;;;2.75;100.00
12676;BME280;63820;65.654;21.944;2023-05-09T03:22:55;101641.56;;;2.81;100.00
12676;BME280;63820;65.654;21.944;2023-05-09T03:25:39;101642.50;;;2.89;100.00
12676;BME280;63820;65.654;21.944;2023-05-09T03:28:23;101634.84;;;2.98;100.00
12676;BME280;63820;65.654;21.944;2023-05-09T03:31:07;101634.91;;;3.06;100.00
12676;BME280;63820;65.654;21.944;2023-05-09T03:33:51;101630.63;;;3.12;100.00
12676;BME280;63820;65.654;21.944;2023-05-09T03:36:35;101636.69;;;3.25;100.00
12676;BME280;63820;65.654;21.944;2023-05-09T03:39:19;101630.84;;;3.53;100.00
12676;BME280;63820;65.654;21.944;2023-05-09T03:42:03;101633.53;;;3.91;100.00
12676;BME280;63820;65.654;21.944;2023-05-09T03:44:48;101631.00;;;4.08;100.00
12676;BME280;63820;65.654;21.944;2023-05-09T03:47:32;101631.88;;;4.15;100.00
12676;BME280;63820;65.654;21.944;2023-05-09T03:50:16;101631.00;;;3.98;100.00
12676;BME280;63820;65.654;21.944;2023-05-09T03:53:01;101630.16;;;4.11;100.00
12676;BME280;63820;65.654;21.944;2023-05-09T03:55:45;101632.72;;;4.26;100.00
12676;BME280;63820;65.654;21.944;2023-05-09T03:58:29;101633.63;;;4.48;100.00
12676;BME280;63820;65.654;21.944;2023-05-09T04:01:13;101638.72;;;5.16;100.00
12676;BME280;63820;65.654;21.944;2023-05-09T04:03:58;101621.72;;;6.41;100.00
12676;BME280;63820;65.654;21.944;2023-05-09T04:06:42;101631.41;;;7.15;100.00
12676;BME280;63820;65.654;21.944;2023-05-09T04:09:26;101620.78;;;7.38;100.00
12676;BME280;63820;65.654;21.944;2023-05-09T04:12:11;101616.06;;;7.69;100.00
12676;BME280;63820;65.654;21.944;2023-05-09T04:14:55;101611.69;;;7.76;100.00
12676;BME280;63820;65.654;21.944;2023-05-09T04:17:39;101612.56;;;7.75;100.00
12676;BME280;63820;65.654;21.944;2023-05-09T04:20:23;101624.81;;;7.61;100.00
12676;BME280;63820;65.654;21.944;2023-05-09T04:23:07;101622.00;;;7.08;100.00
12676;BME280;63820;65.654;21.944;2023-05-09T04:25:50;101621.03;;;7.17;100.00
12676;BME280;63820;65.654;21.944;2023-05-09T04:28:36;101618.16;;;7.41;100.00
12676;BME280;63820;65.654;21.944;2023-05-09T04:31:20;101623.41;;;7.34;100.00
12676;BME280;63820;65.654;21.944;2023-05-09T04:34:05;101620.81;;;7.34;100.00
12676;BME280;63820;65.654;21.944;2023-05-09T04:36:50;101620.53;;;7.58;100.00
12676;BME280;63820;65.654;21.944;2023-05-09T04:39:35;101625.16;;;7.32;100.00
12676;BME280;63820;65.654;21.944;2023-05-09T04:42:19;101617.03;;;6.85;100.00
12676;BME280;63820;65.654;21.944;2023-05-09T04:45:04;101624.06;;;6.71;100.00
12676;BME280;63820;65.654;21.944;2023-05-09T04:47:48;101623.44;;;7.32;100.00
12676;BME280;63820;65.654;21.944;2023-05-09T04:50:32;101619.59;;;7.64;100.00
12676;BME280;63820;65.654;21.944;2023-05-09T04:53:16;101614.97;;;7.87;100.00
12676;BME280;63820;65.654;21.944;2023-05-09T04:56:00;101606.47;;;7.77;100.00
12676;BME280;63820;65.654;21.944;2023-05-09T04:58:44;101609.25;;;6.90;100.00
12676;BME280;63820;65.654;21.944;2023-05-09T05:01:28;101607.72;;;6.68;100.00
12676;BME280;63820;65.654;21.944;2023-05-09T05:04:12;101615.19;;;6.98;100.00
12676;BME280;63820;65.654;21.944;2023-05-09T05:06:56;101619.69;;;6.78;100.00
12676;BME280;63820;65.654;21.944;2023-05-09T05:09:40;101618.41;;;6.25;100.00
12676;BME280;63820;65.654;21.944;2023-05-09T05:12:24;101612.81;;;5.39;100.00
12676;BME280;63820;65.654;21.944;2023-05-09T05:15:09;101605.81;;;5.66;100.00
12676;BME280;63820;65.654;21.944;2023-05-09T05:17:53;101603.00;;;6.16;100.00
12676;BME280;63820;65.654;21.944;2023-05-09T05:20:39;101606.13;;;6.51;100.00
12676;BME280;63820;65.654;21.944;2023-05-09T05:23:23;101601.31;;;7.07;100.00
12676;BME280;63820;65.654;21.944;2023-05-09T05:26:07;101600.16;;;7.31;100.00
12676;BME280;63820;65.654;21.944;2023-05-09T05:28:51;101602.97;;;7.80;100.00
12676;BME280;63820;65.654;21.944;2023-05-09T05:31:38;101598.41;;;9.87;100.00
12676;BME280;63820;65.654;21.944;2023-05-09T05:34:22;101596.22;;;11.69;84.55
12676;BME280;63820;65.654;21.944;2023-05-09T05:37:06;101589.94;;;12.84;73.07
12676;BME280;63820;65.654;21.944;2023-05-09T05:39:50;101606.41;;;14.88;63.64
12676;BME280;63820;65.654;21.944;2023-05-09T05:42:35;101600.22;;;17.75;54.54
12676;BME280;63820;65.654;21.944;2023-05-09T05:45:19;101602.41;;;17.98;48.78
12676;BME280;63820;65.654;21.944;2023-05-09T05:48:04;101609.13;;;18.79;45.43
12676;BME280;63820;65.654;21.944;2023-05-09T05:50:48;101598.16;;;19.15;45.20
12676;BME280;63820;65.654;21.944;2023-05-09T05:53:32;101595.53;;;19.30;44.59
12676;BME280;63820;65.654;21.944;2023-05-09T05:56:16;101600.94;;;22.13;41.29
12676;BME280;63820;65.654;21.944;2023-05-09T05:59:00;101604.22;;;21.18;38.71
12676;BME280;63820;65.654;21.944;2023-05-09T06:01:44;101600.16;;;22.24;38.75
12676;BME280;63820;65.654;21.944;2023-05-09T06:04:28;101600.53;;;23.68;36.17
12676;BME280;63820;65.654;21.944;2023-05-09T06:07:13;101595.53;;;21.42;37.88
12676;BME280;63820;65.654;21.944;2023-05-09T06:09:57;101608.81;;;22.85;35.98
12676;BME280;63820;65.654;21.944;2023-05-09T06:12:41;101603.50;;;22.50;36.60
12676;BME280;63820;65.654;21.944;2023-05-09T06:15:25;101600.69;;;20.28;38.50
12676;BME280;63820;65.654;21.944;2023-05-09T06:18:10;101587.44;;;21.69;36.76
12676;BME280;63820;65.654;21.944;2023-05-09T06:20:54;101602.56;;;24.71;33.55
12676;BME280;63820;65.654;21.944;2023-05-09T06:23:38;101587.69;;;23.84;33.98
12676;BME280;63820;65.654;21.944;2023-05-09T06:26:22;101588.38;;;25.13;32.20
12676;BME280;63820;65.654;21.944;2023-05-09T06:29:06;101589.25;;;29.47;27.76
12676;BME280;63820;65.654;21.944;2023-05-09T06:31:50;101585.25;;;28.12;28.59
12676;BME280;63820;65.654;21.944;2023-05-09T06:34:34;101584.13;;;28.32;28.22
12676;BME280;63820;65.654;21.944;2023-05-09T06:37:18;101579.00;;;30.09;26.71
12676;BME280;63820;65.654;21.944;2023-05-09T06:40:03;101588.25;;;32.57;24.37
12676;BME280;63820;65.654;21.944;2023-05-09T06:42:47;101586.91;;;33.35;23.16
12676;BME280;63820;65.654;21.944;2023-05-09T06:45:31;101590.31;;;32.70;23.27
12676;BME280;63820;65.654;21.944;2023-05-09T06:48:15;101586.59;;;32.71;22.71
12676;BME280;63820;65.654;21.944;2023-05-09T06:50:59;101579.38;;;32.11;24.08
12676;BME280;63820;65.654;21.944;2023-05-09T06:53:43;101579.97;;;30.81;24.89
12676;BME280;63820;65.654;21.944;2023-05-09T06:56:27;101578.19;;;33.03;22.92
12676;BME280;63820;65.654;21.944;2023-05-09T06:59:11;101583.84;;;33.74;22.14
12676;BME280;63820;65.654;21.944;2023-05-09T07:01:56;101568.81;;;31.16;23.05
12676;BME280;63820;65.654;21.944;2023-05-09T07:04:40;101571.34;;;33.52;22.17
12676;BME280;63820;65.654;21.944;2023-05-09T07:07:24;101569.81;;;34.00;21.33
12676;BME280;63820;65.654;21.944;2023-05-09T07:10:09;101564.06;;;32.11;22.73
12676;BME280;63820;65.654;21.944;2023-05-09T07:12:54;101555.63;;;26.29;27.72
12676;BME280;63820;65.654;21.944;2023-05-09T07:15:38;101555.63;;;27.87;27.21
12676;BME280;63820;65.654;21.944;2023-05-09T07:18:22;101547.66;;;29.51;25.80
12676;BME280;63820;65.654;21.944;2023-05-09T07:21:06;101566.84;;;33.08;22.35
12676;BME280;63820;65.654;21.944;2023-05-09T07:23:50;101559.78;;;29.29;25.27
12676;BME280;63820;65.654;21.944;2023-05-09T07:26:35;101555.69;;;32.06;23.25
12676;BME280;63820;65.654;21.944;2023-05-09T07:29:19;101553.63;;;33.13;22.35
12676;BME280;63820;65.654;21.944;2023-05-09T07:32:03;101556.97;;;34.86;21.13
12676;BME280;63820;65.654;21.944;2023-05-09T07:34:48;101549.69;;;30.95;24.25
12676;BME280;63820;65.654;21.944;2023-05-09T07:37:32;101539.31;;;29.62;25.19
12676;BME280;63820;65.654;21.944;2023-05-09T07:40:16;101540.59;;;33.17;22.42
12676;BME280;63820;65.654;21.944;2023-05-09T07:43:00;101540.59;;;35.48;20.44
12676;BME280;63820;65.654;21.944;2023-05-09T07:45:44;101542.06;;;35.51;20.47
12676;BME280;63820;65.654;21.944;2023-05-09T07:48:30;101542.38;;;36.42;20.11
12676;BME280;63820;65.654;21.944;2023-05-09T07:51:14;101535.31;;;36.14;18.89
12676;BME280;63820;65.654;21.944;2023-05-09T07:53:58;101528.72;;;31.30;22.30
12676;BME280;63820;65.654;21.944;2023-05-09T07:56:42;101528.00;;;33.24;20.87
12676;BME280;63820;65.654;21.944;2023-05-09T07:59:26;101521.91;;;33.00;20.65
12676;BME280;63820;65.654;21.944;2023-05-09T08:02:10;101532.41;;;36.35;18.79
12676;BME280;63820;65.654;21.944;2023-05-09T08:04:54;101521.13;;;36.06;18.59
12676;BME280;63820;65.654;21.944;2023-05-09T08:07:38;101516.25;;;32.28;21.06
12676;BME280;63820;65.654;21.944;2023-05-09T08:10:23;101520.94;;;33.23;21.20
12676;BME280;63820;65.654;21.944;2023-05-09T08:13:09;101520.63;;;35.01;18.77
12676;BME280;63820;65.654;21.944;2023-05-09T08:15:53;101522.59;;;35.21;18.23
12676;BME280;63820;65.654;21.944;2023-05-09T08:18:37;101520.91;;;35.94;18.34
12676;BME280;63820;65.654;21.944;2023-05-09T08:21:21;101514.94;;;32.91;20.30
12676;BME280;63820;65.654;21.944;2023-05-09T08:24:05;101512.31;;;29.13;23.40
12676;BME280;63820;65.654;21.944;2023-05-09T08:26:50;101517.81;;;33.04;20.46
12676;BME280;63820;65.654;21.944;2023-05-09T08:29:34;101516.91;;;31.93;20.66
12676;BME280;63820;65.654;21.944;2023-05-09T08:32:19;101504.34;;;31.54;21.38
12676;BME280;63820;65.654;21.944;2023-05-09T08:35:03;101507.81;;;30.21;21.62
12676;BME280;63820;65.654;21.944;2023-05-09T08:37:48;101500.03;;;28.69;22.85
12676;BME280;63820;65.654;21.944;2023-05-09T08:40:36;101506.03;;;27.02;24.79
12676;BME280;63820;65.654;21.944;2023-05-09T08:43:23;101509.47;;;30.30;21.58
12676;BME280;63820;65.654;21.944;2023-05-09T08:46:09;101510.53;;;30.13;22.10
12676;BME280;63820;65.654;21.944;2023-05-09T08:48:54;101510.66;;;30.27;21.48
12676;BME280;63820;65.654;21.944;2023-05-09T08:51:39;101500.34;;;29.42;22.61
12676;BME280;63820;65.654;21.944;2023-05-09T08:54:24;101494.84;;;29.51;21.95
12676;BME280;63820;65.654;21.944;2023-05-09T08:57:08;101501.44;;;28.29;23.10
12676;BME280;63820;65.654;21.944;2023-05-09T08:59:54;101499.81;;;31.23;21.21
12676;BME280;63820;65.654;21.944;2023-05-09T09:02:41;101501.47;;;32.24;20.62
12676;BME280;63820;65.654;21.944;2023-05-09T09:05:26;101508.00;;;33.18;19.66
12676;BME280;63820;65.654;21.944;2023-05-09T09:08:11;101498.72;;;30.38;21.73
12676;BME280;63820;65.654;21.944;2023-05-09T09:10:55;101492.63;;;33.33;20.40
12676;BME280;63820;65.654;21.944;2023-05-09T09:13:40;101502.34;;;32.69;19.98
12676;BME280;63820;65.654;21.944;2023-05-09T09:16:28;101492.66;;;31.39;20.62
12676;BME280;63820;65.654;21.944;2023-05-09T09:19:15;101484.19;;;30.88;21.01
12676;BME280;63820;65.654;21.944;2023-05-09T09:22:03;101492.84;;;31.68;20.30
12676;BME280;63820;65.654;21.944;2023-05-09T09:24:47;101488.16;;;30.29;21.38
12676;BME280;63820;65.654;21.944;2023-05-09T09:27:32;101487.78;;;31.11;21.58
12676;BME280;63820;65.654;21.944;2023-05-09T09:30:16;101483.31;;;30.00;21.78
12676;BME280;63820;65.654;21.944;2023-05-09T09:33:01;101477.91;;;29.51;22.89
12676;BME280;63820;65.654;21.944;2023-05-09T09:35:49;101475.81;;;23.76;27.70
12676;BME280;63820;65.654;21.944;2023-05-09T09:38:39;101471.88;;;23.48;28.35
12676;BME280;63820;65.654;21.944;2023-05-09T09:41:32;101463.06;;;24.53;27.72
12676;BME280;63820;65.654;21.944;2023-05-09T09:44:18;101471.09;;;27.04;25.85
12676;BME280;63820;65.654;21.944;2023-05-09T09:47:03;101486.94;;;26.22;25.57
12676;BME280;63820;65.654;21.944;2023-05-09T09:49:47;101480.75;;;26.41;24.70
12676;BME280;63820;65.654;21.944;2023-05-09T09:52:31;101480.28;;;27.01;24.48
12676;BME280;63820;65.654;21.944;2023-05-09T09:55:18;101488.19;;;29.21;22.24
12676;BME280;63820;65.654;21.944;2023-05-09T09:58:15;101476.72;;;27.28;23.37
12676;BME280;63820;65.654;21.944;2023-05-09T10:01:10;101475.41;;;26.50;24.21
12676;BME280;63820;65.654;21.944;2023-05-09T10:03:56;101475.66;;;26.94;24.02
12676;BME280;63820;65.654;21.944;2023-05-09T10:06:50;101473.25;;;25.68;25.25
12676;BME280;63820;65.654;21.944;2023-05-09T10:09:35;101467.06;;;25.97;25.65
12676;BME280;63820;65.654;21.944;2023-05-09T10:12:23;101467.72;;;24.91;26.26
12676;BME280;63820;65.654;21.944;2023-05-09T10:15:08;101470.94;;;25.45;26.24
12676;BME280;63820;65.654;21.944;2023-05-09T10:17:55;101474.44;;;26.13;26.32
12676;BME280;63820;65.654;21.944;2023-05-09T10:20:40;101465.19;;;25.59;26.64
12676;BME280;63820;65.654;21.944;2023-05-09T10:23:28;101482.09;;;25.19;26.56
12676;BME280;63820;65.654;21.944;2023-05-09T10:26:22;101471.59;;;25.27;27.06
12676;BME280;63820;65.654;21.944;2023-05-09T10:29:12;101475.03;;;24.99;27.16
12676;BME280;63820;65.654;21.944;2023-05-09T10:31:59;101482.84;;;26.47;26.35
12676;BME280;63820;65.654;21.944;2023-05-09T10:34:50;101481.19;;;26.17;26.00
12676;BME280;63820;65.654;21.944;2023-05-09T10:37:34;101474.47;;;25.55;26.63
12676;BME280;63820;65.654;21.944;2023-05-09T10:40:19;101466.91;;;25.69;26.29
12676;BME280;63820;65.654;21.944;2023-05-09T10:43:04;101472.28;;;24.80;26.76
12676;BME280;63820;65.654;21.944;2023-05-09T10:45:48;101472.13;;;22.79;29.61
12676;BME280;63820;65.654;21.944;2023-05-09T10:48:35;101464.00;;;22.92;30.51
12676;BME280;63820;65.654;21.944;2023-05-09T10:51:20;101470.22;;;24.32;29.31
12676;BME280;63820;65.654;21.944;2023-05-09T10:54:13;101465.91;;;25.01;27.25
12676;BME280;63820;65.654;21.944;2023-05-09T10:56:59;101461.38;;;23.90;28.43
12676;BME280;63820;65.654;21.944;2023-05-09T10:59:44;101456.31;;;23.55;29.60
12676;BME280;63820;65.654;21.944;2023-05-09T11:02:29;101455.38;;;23.33;29.20
12676;BME280;63820;65.654;21.944;2023-05-09T11:05:16;101454.44;;;23.23;30.33
12676;BME280;63820;65.654;21.944;2023-05-09T11:08:23;101448.25;;;24.19;28.96
12676;BME280;63820;65.654;21.944;2023-05-09T11:11:21;101446.69;;;24.58;28.66
12676;BME280;63820;65.654;21.944;2023-05-09T11:14:08;101440.41;;;24.99;28.40
12676;BME280;63820;65.654;21.944;2023-05-09T11:16:56;101453.81;;;23.95;28.38
12676;BME280;63820;65.654;21.944;2023-05-09T11:22:30;101432.97;;;21.56;32.02
12676;BME280;63820;65.654;21.944;2023-05-09T11:25:16;101430.94;;;22.63;31.09
12676;BME280;63820;65.654;21.944;2023-05-09T11:28:00;101436.81;;;22.33;31.32
12676;BME280;63820;65.654;21.944;2023-05-09T11:30:45;101429.34;;;22.27;31.68
12676;BME280;63820;65.654;21.944;2023-05-09T11:33:29;101440.63;;;21.47;33.47
12676;BME280;63820;65.654;21.944;2023-05-09T11:39:12;101433.75;;;22.04;32.29
12676;BME280;63820;65.654;21.944;2023-05-09T11:42:07;101428.22;;;21.11;33.20
12676;BME280;63820;65.654;21.944;2023-05-09T11:44:52;101428.44;;;19.56;35.81
12676;BME280;63820;65.654;21.944;2023-05-09T11:47:36;101434.28;;;19.06;37.09
12676;BME280;63820;65.654;21.944;2023-05-09T11:50:21;101425.34;;;18.23;37.81
12676;BME280;63820;65.654;21.944;2023-05-09T11:53:09;101417.94;;;18.58;37.35
12676;BME280;63820;65.654;21.944;2023-05-09T11:55:55;101426.38;;;17.60;39.82
12676;BME280;63820;65.654;21.944;2023-05-09T11:58:39;101420.72;;;17.52;40.61
12676;BME280;63820;65.654;21.944;2023-05-09T12:01:23;101418.34;;;18.08;40.69
12676;BME280;63820;65.654;21.944;2023-05-09T12:04:08;101420.31;;;17.74;40.81
12676;BME280;63820;65.654;21.944;2023-05-09T12:06:52;101422.50;;;17.36;41.48
12676;BME280;63820;65.654;21.944;2023-05-09T12:09:36;101422.34;;;17.39;42.10
12676;BME280;63820;65.654;21.944;2023-05-09T12:12:21;101417.22;;;16.73;43.30
12676;BME280;63820;65.654;21.944;2023-05-09T12:15:06;101413.44;;;16.94;43.07
12676;BME280;63820;65.654;21.944;2023-05-09T12:18:04;101414.75;;;16.70;43.44
12676;BME280;63820;65.654;21.944;2023-05-09T12:20:49;101422.94;;;16.97;42.15
12676;BME280;63820;65.654;21.944;2023-05-09T12:23:34;101417.91;;;16.77;43.46
12676;BME280;63820;65.654;21.944;2023-05-09T12:26:18;101420.19;;;15.29;46.42
12676;BME280;63820;65.654;21.944;2023-05-09T12:29:02;101420.31;;;15.62;45.43
12676;BME280;63820;65.654;21.944;2023-05-09T12:31:47;101426.34;;;15.64;46.13
12676;BME280;63820;65.654;21.944;2023-05-09T12:34:32;101410.56;;;15.47;47.03
12676;BME280;63820;65.654;21.944;2023-05-09T12:37:17;101408.75;;;15.83;46.23
12676;BME280;63820;65.654;21.944;2023-05-09T12:40:07;101401.69;;;14.94;47.77
12676;BME280;63820;65.654;21.944;2023-05-09T12:42:52;101412.94;;;14.59;48.29
12676;BME280;63820;65.654;21.944;2023-05-09T12:45:40;101408.16;;;14.09;49.93
12676;BME280;63820;65.654;21.944;2023-05-09T12:48:25;101409.56;;;13.75;50.57
12676;BME280;63820;65.654;21.944;2023-05-09T12:51:10;101410.25;;;13.59;51.10
12676;BME280;63820;65.654;21.944;2023-05-09T12:54:01;101407.75;;;13.56;51.77
12676;BME280;63820;65.654;21.944;2023-05-09T12:56:47;101412.25;;;14.15;51.80
12676;BME280;63820;65.654;21.944;2023-05-09T12:59:34;101409.72;;;13.93;51.37
12676;BME280;63820;65.654;21.944;2023-05-09T13:02:19;101404.81;;;15.21;48.96
12676;BME280;63820;65.654;21.944;2023-05-09T13:05:10;101412.63;;;15.59;47.22
12676;BME280;63820;65.654;21.944;2023-05-09T13:07:55;101404.88;;;14.82;49.36
12676;BME280;63820;65.654;21.944;2023-05-09T13:10:39;101400.47;;;15.20;48.46
12676;BME280;63820;65.654;21.944;2023-05-09T13:13:25;101382.09;;;14.84;49.21
12676;BME280;63820;65.654;21.944;2023-05-09T13:16:10;101391.31;;;14.55;50.45
12676;BME280;63820;65.654;21.944;2023-05-09T13:18:54;101395.03;;;13.68;50.91
12676;BME280;63820;65.654;21.944;2023-05-09T13:21:38;101400.41;;;13.86;51.72
12676;BME280;63820;65.654;21.944;2023-05-09T13:24:22;101400.47;;;14.25;51.36
12676;BME280;63820;65.654;21.944;2023-05-09T13:27:06;101401.78;;;14.74;50.21
12676;BME280;63820;65.654;21.944;2023-05-09T13:29:53;101393.81;;;14.57;50.24
12676;BME280;63820;65.654;21.944;2023-05-09T13:32:37;101395.13;;;14.28;51.21
12676;BME280;63820;65.654;21.944;2023-05-09T13:35:21;101399.53;;;13.23;53.60
12676;BME280;63820;65.654;21.944;2023-05-09T13:38:06;101397.69;;;13.25;53.70
12676;BME280;63820;65.654;21.944;2023-05-09T13:40:50;101377.75;;;13.64;53.31
12676;BME280;63820;65.654;21.944;2023-05-09T13:43:35;101381.34;;;13.20;54.22
12676;BME280;63820;65.654;21.944;2023-05-09T13:46:19;101377.09;;;13.17;54.95
12676;BME280;63820;65.654;21.944;2023-05-09T13:49:03;101388.63;;;12.88;54.77
12676;BME280;63820;65.654;21.944;2023-05-09T13:51:48;101389.16;;;12.51;57.16
12676;BME280;63820;65.654;21.944;2023-05-09T13:54:33;101385.94;;;13.13;55.54
12676;BME280;63820;65.654;21.944;2023-05-09T13:57:18;101380.06;;;12.85;55.62
12676;BME280;63820;65.654;21.944;2023-05-09T14:00:02;101383.53;;;12.85;56.54
12676;BME280;63820;65.654;21.944;2023-05-09T14:02:47;101371.88;;;12.94;56.67
12676;BME280;63820;65.654;21.944;2023-05-09T14:05:31;101373.72;;;12.22;58.26
12676;BME280;63820;65.654;21.944;2023-05-09T14:08:15;101363.53;;;12.39;57.59
12676;BME280;63820;65.654;21.944;2023-05-09T14:11:00;101366.41;;;12.31;57.85
12676;BME280;63820;65.654;21.944;2023-05-09T14:13:44;101369.53;;;12.41;58.34
12676;BME280;63820;65.654;21.944;2023-05-09T14:16:28;101357.88;;;12.73;58.17
12676;BME280;63820;65.654;21.944;2023-05-09T14:19:13;101359.72;;;12.93;57.74
12676;BME280;63820;65.654;21.944;2023-05-09T14:22:00;101357.53;;;12.82;57.44
12676;BME280;63820;65.654;21.944;2023-05-09T14:24:44;101356.75;;;12.57;58.06
12676;BME280;63820;65.654;21.944;2023-05-09T14:27:28;101350.28;;;12.67;58.28
12676;BME280;63820;65.654;21.944;2023-05-09T14:30:13;101356.66;;;12.82;57.49
12676;BME280;63820;65.654;21.944;2023-05-09T14:32:56;101348.28;;;12.73;56.99
12676;BME280;63820;65.654;21.944;2023-05-09T14:35:41;101340.97;;;12.13;59.60